sensor_id;sensor_type;location;lat;lon;timestamp;pressure;altitude;pressure_sealevel;temperature;humidity
44313;BME280;38833;51.142;-0.974;2023-09-19T00:01:19;99326.12;;;22.26;44.77
44313;BME280;38833;51.142;-0.974;2023-09-19T00:03:52;99317.15;;;22.01;45.19
44313;BME280;38833;51.142;-0.974;2023-09-19T00:06:26;99315.52;;;22.01;45.21
44313;BME280;38833;51.142;-0.974;2023-09-19T00:09:01;99318.88;;;21.97;45.28
44313;BME280;38833;51.142;-0.974;2023-09-19T00:11:34;99312.82;;;22.25;45.24
44313;BME280;38833;51.142;-0.974;2023-09-19T00:14:08;99311.64;;;21.94;45.32
44313;BME280;38833;51.142;-0.974;2023-09-19T00:16:41;99306.84;;;22.22;45.27
44313;BME280;38833;51.142;-0.974;2023-09-19T00:19:15;99303.87;;;22.14;45.44
44313;BME280;38833;51.142;-0.974;2023-09-19T00:21:48;99304.65;;;22.41;45.32
44313;BME280;38833;51.142;-0.974;2023-09-19T00:24:22;99303.49;;;22.00;45.15
44313;BME280;38833;51.142;-0.974;2023-09-19T00:26:55;99309.30;;;22.18;45.30
44313;BME280;38833;51.142;-0.974;2023-09-19T00:29:28;99319.72;;;22.19;45.31
44313;BME280;38833;51.142;-0.974;2023-09-19T00:32:02;99320.98;;;21.88;45.35
44313;BME280;38833;51.142;-0.974;2023-09-19T00:34:35;99322.59;;;21.81;45.46
44313;BME280;38833;51.142;-0.974;2023-09-19T00:37:09;99321.76;;;21.88;45.32
44313;BME280;38833;51.142;-0.974;2023-09-19T00:39:42;99318.35;;;22.04;45.49
44313;BME280;38833;51.142;-0.974;2023-09-19T00:42:18;99312.02;;;22.17;45.25
44313;BME280;38833;51.142;-0.974;2023-09-19T00:44:52;99325.00;;;21.75;45.55
44313;BME280;38833;51.142;-0.974;2023-09-19T00:47:25;99324.39;;;21.82;45.41
44313;BME280;38833;51.142;-0.974;2023-09-19T00:50:00;99322.18;;;22.27;45.47
44313;BME280;38833;51.142;-0.974;2023-09-19T00:52:34;99327.99;;;21.80;45.43
44313;BME280;38833;51.142;-0.974;2023-09-19T00:55:09;99326.34;;;21.75;45.49
44313;BME280;38833;51.142;-0.974;2023-09-19T00:57:43;99327.90;;;21.98;45.54
44313;BME280;38833;51.142;-0.974;2023-09-19T01:00:17;99329.88;;;21.91;45.21
44313;BME280;38833;51.142;-0.974;2023-09-19T01:02:50;99331.48;;;21.97;45.56
44313;BME280;38833;51.142;-0.974;2023-09-19T01:05:23;99333.21;;;21.68;45.56
44313;BME280;38833;51.142;-0.974;2023-09-19T01:07:57;99339.25;;;22.12;45.25
44313;BME280;38833;51.142;-0.974;2023-09-19T01:10:31;99333.77;;;21.93;45.56
44313;BME280;38833;51.142;-0.974;2023-09-19T01:13:09;99329.85;;;22.08;45.73
44313;BME280;38833;51.142;-0.974;2023-09-19T01:15:51;99329.11;;;22.03;45.40
44313;BME280;38833;51.142;-0.974;2023-09-19T01:18:35;99328.90;;;21.82;45.83
44313;BME280;38833;51.142;-0.974;2023-09-19T01:21:19;99328.12;;;21.90;45.63
44313;BME280;38833;51.142;-0.974;2023-09-19T01:24:22;99326.17;;;21.89;45.63
44313;BME280;38833;51.142;-0.974;2023-09-19T01:27:18;99324.05;;;21.61;45.66
44313;BME280;38833;51.142;-0.974;2023-09-19T01:30:08;99320.79;;;21.79;45.76
44313;BME280;38833;51.142;-0.974;2023-09-19T01:32:42;99322.86;;;21.95;45.47
44313;BME280;38833;51.142;-0.974;2023-09-19T01:35:16;99321.61;;;22.02;45.74
44313;BME280;38833;51.142;-0.974;2023-09-19T01:37:49;99316.18;;;21.49;45.82
44313;BME280;38833;51.142;-0.974;2023-09-19T01:40:23;99318.00;;;22.00;45.74
44313;BME280;38833;51.142;-0.974;2023-09-19T01:42:59;99317.98;;;21.79;45.74
44313;BME280;38833;51.142;-0.974;2023-09-19T01:45:47;99319.10;;;22.00;45.71
44313;BME280;38833;51.142;-0.974;2023-09-19T01:48:29;99325.51;;;22.05;45.64
44313;BME280;38833;51.142;-0.974;2023-09-19T01:51:10;99321.20;;;21.74;45.75
44313;BME280;38833;51.142;-0.974;2023-09-19T01:53:51;99313.96;;;21.71;45.84
44313;BME280;38833;51.142;-0.974;2023-09-19T01:56:30;99309.94;;;21.87;45.51
44313;BME280;38833;51.142;-0.974;2023-09-19T01:59:09;99316.00;;;21.84;45.56
44313;BME280;38833;51.142;-0.974;2023-09-19T02:01:45;99318.18;;;21.57;45.54
44313;BME280;38833;51.142;-0.974;2023-09-19T02:04:19;99316.41;;;21.62;45.90
44313;BME280;38833;51.142;-0.974;2023-09-19T02:06:53;99312.30;;;21.80;45.56
44313;BME280;38833;51.142;-0.974;2023-09-19T02:09:26;99322.32;;;21.88;45.43
44313;BME280;38833;51.142;-0.974;2023-09-19T02:12:00;99323.88;;;21.72;45.71
44313;BME280;38833;51.142;-0.974;2023-09-19T02:14:33;99321.89;;;21.60;45.91
44313;BME280;38833;51.142;-0.974;2023-09-19T02:17:06;99317.60;;;21.62;45.89
44313;BME280;38833;51.142;-0.974;2023-09-19T02:19:39;99321.79;;;21.61;45.89
44313;BME280;38833;51.142;-0.974;2023-09-19T02:22:13;99314.89;;;21.58;45.94
44313;BME280;38833;51.142;-0.974;2023-09-19T02:24:46;99308.96;;;21.93;45.66
44313;BME280;38833;51.142;-0.974;2023-09-19T02:27:20;99311.39;;;21.82;45.86
44313;BME280;38833;51.142;-0.974;2023-09-19T02:29:53;99312.04;;;21.42;45.67
44313;BME280;38833;51.142;-0.974;2023-09-19T02:32:26;99312.26;;;21.65;45.72
44313;BME280;38833;51.142;-0.974;2023-09-19T02:34:59;99305.53;;;21.56;45.90
44313;BME280;38833;51.142;-0.974;2023-09-19T02:37:33;99314.75;;;21.82;45.84
44313;BME280;38833;51.142;-0.974;2023-09-19T02:40:07;99315.68;;;21.54;45.90
44313;BME280;38833;51.142;-0.974;2023-09-19T02:42:43;99319.24;;;21.33;45.80
44313;BME280;38833;51.142;-0.974;2023-09-19T02:45:17;99325.52;;;21.81;45.84
44313;BME280;38833;51.142;-0.974;2023-09-19T02:47:50;99324.57;;;21.87;45.75
44313;BME280;38833;51.142;-0.974;2023-09-19T02:50:24;99316.50;;;21.18;46.05
44313;BME280;38833;51.142;-0.974;2023-09-19T02:52:57;99314.21;;;21.65;46.06
44313;BME280;38833;51.142;-0.974;2023-09-19T02:55:31;99312.50;;;21.67;46.06
44313;BME280;38833;51.142;-0.974;2023-09-19T02:58:05;99311.91;;;21.42;46.08
44313;BME280;38833;51.142;-0.974;2023-09-19T03:00:39;99310.29;;;21.73;45.89
44313;BME280;38833;51.142;-0.974;2023-09-19T03:03:12;99306.33;;;21.67;45.99
44313;BME280;38833;51.142;-0.974;2023-09-19T03:05:45;99305.52;;;21.71;45.93
44313;BME280;38833;51.142;-0.974;2023-09-19T03:08:19;99304.79;;;21.65;46.03
44313;BME280;38833;51.142;-0.974;2023-09-19T03:10:53;99303.54;;;21.73;45.84
44313;BME280;38833;51.142;-0.974;2023-09-19T03:13:26;99301.88;;;21.75;45.81
44313;BME280;38833;51.142;-0.974;2023-09-19T03:15:59;99298.24;;;21.41;46.00
44313;BME280;38833;51.142;-0.974;2023-09-19T03:18:34;99296.62;;;21.67;45.94
44313;BME280;38833;51.142;-0.974;2023-09-19T03:21:08;99296.61;;;21.61;46.04
44313;BME280;38833;51.142;-0.974;2023-09-19T03:23:41;99290.75;;;21.61;46.02
44313;BME280;38833;51.142;-0.974;2023-09-19T03:26:14;99288.95;;;21.63;45.95
44313;BME280;38833;51.142;-0.974;2023-09-19T03:28:48;99286.34;;;21.12;45.99
44313;BME280;38833;51.142;-0.974;2023-09-19T03:31:21;99289.81;;;21.33;46.10
44313;BME280;38833;51.142;-0.974;2023-09-19T03:33:55;99286.41;;;21.45;45.87
44313;BME280;38833;51.142;-0.974;2023-09-19T03:36:29;99278.91;;;21.50;46.18
44313;BME280;38833;51.142;-0.974;2023-09-19T03:39:02;99274.55;;;21.51;46.13
44313;BME280;38833;51.142;-0.974;2023-09-19T03:41:36;99274.41;;;21.61;45.92
44313;BME280;38833;51.142;-0.974;2023-09-19T03:44:09;99273.26;;;21.30;46.09
44313;BME280;38833;51.142;-0.974;2023-09-19T03:46:43;99269.31;;;21.48;46.16
44313;BME280;38833;51.142;-0.974;2023-09-19T03:49:16;99263.77;;;21.52;46.08
44313;BME280;38833;51.142;-0.974;2023-09-19T03:51:50;99257.16;;;21.41;46.30
44313;BME280;38833;51.142;-0.974;2023-09-19T03:54:23;99252.82;;;21.49;46.12
44313;BME280;38833;51.142;-0.974;2023-09-19T03:56:56;99252.11;;;21.44;46.18
44313;BME280;38833;51.142;-0.974;2023-09-19T03:59:30;99251.11;;;21.49;46.07
44313;BME280;38833;51.142;-0.974;2023-09-19T04:02:03;99242.60;;;21.17;46.25
44313;BME280;38833;51.142;-0.974;2023-09-19T04:04:37;99238.58;;;21.44;46.18
44313;BME280;38833;51.142;-0.974;2023-09-19T04:07:10;99235.62;;;21.56;45.92
44313;BME280;38833;51.142;-0.974;2023-09-19T04:09:44;99227.43;;;21.46;46.09
44313;BME280;38833;51.142;-0.974;2023-09-19T04:12:17;99219.09;;;21.36;46.29
44313;BME280;38833;51.142;-0.974;2023-09-19T04:14:50;99211.63;;;21.35;46.29
44313;BME280;38833;51.142;-0.974;2023-09-19T04:17:24;99203.61;;;21.36;46.27
44313;BME280;38833;51.142;-0.974;2023-09-19T04:19:57;99201.77;;;21.44;46.11
44313;BME280;38833;51.142;-0.974;2023-09-19T04:22:30;99198.09;;;21.44;46.07
44313;BME280;38833;51.142;-0.974;2023-09-19T04:25:04;99192.49;;;21.35;46.28
44313;BME280;38833;51.142;-0.974;2023-09-19T04:27:37;99193.19;;;21.63;46.25
44313;BME280;38833;51.142;-0.974;2023-09-19T04:30:11;99194.29;;;21.34;46.27
44313;BME280;38833;51.142;-0.974;2023-09-19T04:32:44;99198.11;;;21.41;46.11
44313;BME280;38833;51.142;-0.974;2023-09-19T04:35:18;99197.07;;;21.40;46.09
44313;BME280;38833;51.142;-0.974;2023-09-19T04:37:51;99194.90;;;21.32;46.27
44313;BME280;38833;51.142;-0.974;2023-09-19T04:40:25;99191.39;;;21.35;46.20
44313;BME280;38833;51.142;-0.974;2023-09-19T04:42:59;99189.00;;;21.35;46.18
44313;BME280;38833;51.142;-0.974;2023-09-19T04:45:32;99193.29;;;21.27;46.38
44313;BME280;38833;51.142;-0.974;2023-09-19T04:48:05;99191.94;;;21.35;46.20
44313;BME280;38833;51.142;-0.974;2023-09-19T04:50:39;99184.87;;;21.07;46.25
44313;BME280;38833;51.142;-0.974;2023-09-19T04:53:12;99179.90;;;21.29;46.27
44313;BME280;38833;51.142;-0.974;2023-09-19T04:55:49;99183.00;;;21.28;46.29
44313;BME280;38833;51.142;-0.974;2023-09-19T04:58:23;99186.29;;;20.96;46.48
44313;BME280;38833;51.142;-0.974;2023-09-19T05:00:56;99188.83;;;21.24;46.35
44313;BME280;38833;51.142;-0.974;2023-09-19T05:03:30;99190.14;;;21.37;46.06
44313;BME280;38833;51.142;-0.974;2023-09-19T05:06:03;99185.61;;;21.35;46.13
44313;BME280;38833;51.142;-0.974;2023-09-19T05:08:37;99188.19;;;21.33;46.13
44313;BME280;38833;51.142;-0.974;2023-09-19T05:11:10;99185.70;;;21.02;46.31
44313;BME280;38833;51.142;-0.974;2023-09-19T05:13:43;99181.21;;;21.36;46.06
44313;BME280;38833;51.142;-0.974;2023-09-19T05:16:17;99175.89;;;21.14;46.02
44313;BME280;38833;51.142;-0.974;2023-09-19T05:18:50;99174.34;;;21.26;46.24
44313;BME280;38833;51.142;-0.974;2023-09-19T05:21:24;99175.65;;;21.41;45.92
44313;BME280;38833;51.142;-0.974;2023-09-19T05:23:57;99179.22;;;21.31;46.13
44313;BME280;38833;51.142;-0.974;2023-09-19T05:26:30;99176.11;;;21.26;46.20
44313;BME280;38833;51.142;-0.974;2023-09-19T05:29:04;99174.48;;;21.47;45.81
44313;BME280;38833;51.142;-0.974;2023-09-19T05:31:37;99172.41;;;21.39;45.91
44313;BME280;38833;51.142;-0.974;2023-09-19T05:34:10;99173.48;;;21.46;45.76
44313;BME280;38833;51.142;-0.974;2023-09-19T05:36:44;99168.97;;;21.34;45.96
44313;BME280;38833;51.142;-0.974;2023-09-19T05:39:17;99172.22;;;21.40;45.86
44313;BME280;38833;51.142;-0.974;2023-09-19T05:41:50;99166.59;;;21.49;45.67
44313;BME280;38833;51.142;-0.974;2023-09-19T05:44:24;99169.11;;;21.37;45.87
44313;BME280;38833;51.142;-0.974;2023-09-19T05:46:57;99164.19;;;21.37;45.92
44313;BME280;38833;51.142;-0.974;2023-09-19T05:49:30;99157.75;;;21.42;45.78
44313;BME280;38833;51.142;-0.974;2023-09-19T05:52:05;99153.65;;;21.47;45.70
44313;BME280;38833;51.142;-0.974;2023-09-19T05:54:38;99159.14;;;21.21;45.77
44313;BME280;38833;51.142;-0.974;2023-09-19T05:57:12;99161.11;;;21.18;45.83
44313;BME280;38833;51.142;-0.974;2023-09-19T05:59:45;99158.27;;;21.45;45.71
44313;BME280;38833;51.142;-0.974;2023-09-19T06:02:19;99164.95;;;21.40;45.83
44313;BME280;38833;51.142;-0.974;2023-09-19T06:04:52;99153.18;;;21.15;45.87
44313;BME280;38833;51.142;-0.974;2023-09-19T06:07:25;99154.31;;;21.31;46.00
44313;BME280;38833;51.142;-0.974;2023-09-19T06:09:59;99154.13;;;21.29;46.04
44313;BME280;38833;51.142;-0.974;2023-09-19T06:12:32;99158.02;;;21.30;46.04
44313;BME280;38833;51.142;-0.974;2023-09-19T06:15:06;99155.77;;;21.28;46.08
44313;BME280;38833;51.142;-0.974;2023-09-19T06:17:40;99153.53;;;21.34;45.99
44313;BME280;38833;51.142;-0.974;2023-09-19T06:20:14;99157.70;;;21.26;46.14
44313;BME280;38833;51.142;-0.974;2023-09-19T06:22:47;99147.23;;;21.27;46.12
44313;BME280;38833;51.142;-0.974;2023-09-19T06:25:21;99147.08;;;21.01;46.17
44313;BME280;38833;51.142;-0.974;2023-09-19T06:27:54;99144.28;;;21.64;45.91
44313;BME280;38833;51.142;-0.974;2023-09-19T06:30:28;99146.16;;;21.32;46.01
44313;BME280;38833;51.142;-0.974;2023-09-19T06:33:01;99147.33;;;21.25;46.13
44313;BME280;38833;51.142;-0.974;2023-09-19T06:35:35;99136.98;;;21.05;46.13
44313;BME280;38833;51.142;-0.974;2023-09-19T06:38:08;99138.20;;;21.09;46.03
44313;BME280;38833;51.142;-0.974;2023-09-19T06:40:41;99142.32;;;21.29;46.10
44313;BME280;38833;51.142;-0.974;2023-09-19T06:43:15;99134.52;;;21.27;46.12
44313;BME280;38833;51.142;-0.974;2023-09-19T06:45:48;99127.76;;;21.62;45.98
44313;BME280;38833;51.142;-0.974;2023-09-19T06:48:21;99122.06;;;21.07;46.11
44313;BME280;38833;51.142;-0.974;2023-09-19T06:50:55;99117.09;;;21.39;45.92
44313;BME280;38833;51.142;-0.974;2023-09-19T06:53:29;99120.45;;;21.37;46.01
44313;BME280;38833;51.142;-0.974;2023-09-19T06:56:03;99123.06;;;21.80;45.38
44313;BME280;38833;51.142;-0.974;2023-09-19T06:58:36;99125.27;;;21.53;45.95
44313;BME280;38833;51.142;-0.974;2023-09-19T07:01:10;99116.66;;;21.76;45.72
44313;BME280;38833;51.142;-0.974;2023-09-19T07:03:43;99108.97;;;21.37;46.10
44313;BME280;38833;51.142;-0.974;2023-09-19T07:06:17;99114.99;;;21.72;45.95
44313;BME280;38833;51.142;-0.974;2023-09-19T07:08:50;99111.82;;;21.88;45.66
44313;BME280;38833;51.142;-0.974;2023-09-19T07:11:23;99108.75;;;22.01;45.43
44313;BME280;38833;51.142;-0.974;2023-09-19T07:13:57;99100.73;;;21.77;45.57
44313;BME280;38833;51.142;-0.974;2023-09-19T07:16:31;99095.42;;;21.83;45.30
44313;BME280;38833;51.142;-0.974;2023-09-19T07:19:05;99094.76;;;22.05;45.42
44313;BME280;38833;51.142;-0.974;2023-09-19T07:21:38;99089.83;;;22.42;44.86
44313;BME280;38833;51.142;-0.974;2023-09-19T07:24:12;99095.88;;;22.21;44.82
44313;BME280;38833;51.142;-0.974;2023-09-19T07:26:45;99086.97;;;22.33;44.74
44313;BME280;38833;51.142;-0.974;2023-09-19T07:29:19;99100.81;;;22.12;44.57
44313;BME280;38833;51.142;-0.974;2023-09-19T07:31:52;99104.02;;;22.48;44.46
44313;BME280;38833;51.142;-0.974;2023-09-19T07:34:35;99108.40;;;22.29;44.71
44313;BME280;38833;51.142;-0.974;2023-09-19T07:37:09;99096.65;;;22.32;44.22
44313;BME280;38833;51.142;-0.974;2023-09-19T07:39:42;99099.93;;;21.98;44.72
44313;BME280;38833;51.142;-0.974;2023-09-19T07:42:16;99097.94;;;21.66;44.88
44313;BME280;38833;51.142;-0.974;2023-09-19T07:44:50;99100.55;;;22.46;43.91
44313;BME280;38833;51.142;-0.974;2023-09-19T07:47:23;99109.37;;;22.44;44.58
44313;BME280;38833;51.142;-0.974;2023-09-19T07:49:56;99089.48;;;22.20;44.65
44313;BME280;38833;51.142;-0.974;2023-09-19T07:52:30;99089.61;;;22.22;44.56
44313;BME280;38833;51.142;-0.974;2023-09-19T07:55:03;99088.67;;;22.84;43.93
44313;BME280;38833;51.142;-0.974;2023-09-19T07:57:37;99080.56;;;22.66;44.33
44313;BME280;38833;51.142;-0.974;2023-09-19T08:00:11;99076.63;;;23.00;44.23
44313;BME280;38833;51.142;-0.974;2023-09-19T08:02:44;99074.46;;;21.98;45.64
44313;BME280;38833;51.142;-0.974;2023-09-19T08:05:18;99074.88;;;22.38;44.76
44313;BME280;38833;51.142;-0.974;2023-09-19T08:07:52;99076.43;;;23.33;43.74
44313;BME280;38833;51.142;-0.974;2023-09-19T08:10:25;99075.98;;;23.25;43.39
44313;BME280;38833;51.142;-0.974;2023-09-19T08:12:59;99081.66;;;23.47;43.12
44313;BME280;38833;51.142;-0.974;2023-09-19T08:15:32;99067.27;;;23.57;43.11
44313;BME280;38833;51.142;-0.974;2023-09-19T08:18:05;99078.44;;;23.69;43.10
44313;BME280;38833;51.142;-0.974;2023-09-19T08:20:39;99076.18;;;23.59;42.97
44313;BME280;38833;51.142;-0.974;2023-09-19T08:23:12;99081.33;;;23.86;42.78
44313;BME280;38833;51.142;-0.974;2023-09-19T08:25:46;99070.63;;;23.55;43.03
44313;BME280;38833;51.142;-0.974;2023-09-19T08:28:19;99067.19;;;24.01;42.68
44313;BME280;38833;51.142;-0.974;2023-09-19T08:30:52;99079.79;;;23.80;42.66
44313;BME280;38833;51.142;-0.974;2023-09-19T08:33:26;99072.34;;;24.11;42.54
44313;BME280;38833;51.142;-0.974;2023-09-19T08:35:59;99071.42;;;23.66;42.88
44313;BME280;38833;51.142;-0.974;2023-09-19T08:38:34;99069.44;;;23.36;42.99
44313;BME280;38833;51.142;-0.974;2023-09-19T08:41:08;99077.70;;;23.46;43.69
44313;BME280;38833;51.142;-0.974;2023-09-19T08:43:42;99082.24;;;23.34;43.81
44313;BME280;38833;51.142;-0.974;2023-09-19T08:46:16;99082.41;;;23.30;43.77
44313;BME280;38833;51.142;-0.974;2023-09-19T08:48:57;99076.33;;;23.32;43.49
44313;BME280;38833;51.142;-0.974;2023-09-19T08:51:41;99087.37;;;23.30;43.53
44313;BME280;38833;51.142;-0.974;2023-09-19T08:54:24;99083.59;;;23.62;43.39
44313;BME280;38833;51.142;-0.974;2023-09-19T08:57:00;99084.30;;;23.79;43.17
44313;BME280;38833;51.142;-0.974;2023-09-19T08:59:38;99086.49;;;23.31;43.27
44313;BME280;38833;51.142;-0.974;2023-09-19T09:02:12;99078.56;;;23.21;43.37
44313;BME280;38833;51.142;-0.974;2023-09-19T09:04:50;99094.43;;;23.45;42.91
44313;BME280;38833;51.142;-0.974;2023-09-19T09:07:24;99087.91;;;24.12;42.21
44313;BME280;38833;51.142;-0.974;2023-09-19T09:09:58;99105.12;;;24.38;41.81
44313;BME280;38833;51.142;-0.974;2023-09-19T09:12:32;99107.79;;;24.15;41.85
44313;BME280;38833;51.142;-0.974;2023-09-19T09:15:06;99106.20;;;24.01;41.93
44313;BME280;38833;51.142;-0.974;2023-09-19T09:17:40;99106.49;;;23.94;42.03
44313;BME280;38833;51.142;-0.974;2023-09-19T09:20:13;99102.18;;;24.29;41.53
44313;BME280;38833;51.142;-0.974;2023-09-19T09:22:55;99093.46;;;23.85;42.10
44313;BME280;38833;51.142;-0.974;2023-09-19T09:25:47;99098.08;;;24.20;41.53
44313;BME280;38833;51.142;-0.974;2023-09-19T09:28:22;99099.88;;;24.20;42.00
44313;BME280;38833;51.142;-0.974;2023-09-19T09:30:56;99098.47;;;23.86;42.09
44313;BME280;38833;51.142;-0.974;2023-09-19T09:33:30;99094.04;;;23.80;42.27
44313;BME280;38833;51.142;-0.974;2023-09-19T09:36:03;99097.05;;;23.85;41.74
44313;BME280;38833;51.142;-0.974;2023-09-19T09:38:44;99098.19;;;23.90;41.34
44313;BME280;38833;51.142;-0.974;2023-09-19T09:41:17;99102.07;;;23.78;41.54
44313;BME280;38833;51.142;-0.974;2023-09-19T09:43:50;99111.03;;;23.79;41.41
44313;BME280;38833;51.142;-0.974;2023-09-19T09:46:24;99101.43;;;23.82;41.69
44313;BME280;38833;51.142;-0.974;2023-09-19T09:48:59;99103.54;;;23.84;41.26
44313;BME280;38833;51.142;-0.974;2023-09-19T09:51:33;99092.19;;;23.68;41.87
44313;BME280;38833;51.142;-0.974;2023-09-19T09:54:11;99098.80;;;23.69;41.82
44313;BME280;38833;51.142;-0.974;2023-09-19T09:56:53;99091.76;;;23.53;41.71
44313;BME280;38833;51.142;-0.974;2023-09-19T09:59:45;99080.66;;;23.49;41.78
44313;BME280;38833;51.142;-0.974;2023-09-19T10:02:21;99079.61;;;23.99;41.70
44313;BME280;38833;51.142;-0.974;2023-09-19T10:04:58;99071.13;;;23.74;41.69
44313;BME280;38833;51.142;-0.974;2023-09-19T10:07:32;99073.51;;;23.49;42.07
44313;BME280;38833;51.142;-0.974;2023-09-19T10:10:06;99079.19;;;22.94;42.72
44313;BME280;38833;51.142;-0.974;2023-09-19T10:12:43;99068.84;;;23.28;42.19
44313;BME280;38833;51.142;-0.974;2023-09-19T10:15:18;99067.53;;;23.87;41.76
44313;BME280;38833;51.142;-0.974;2023-09-19T10:17:52;99072.70;;;23.62;41.72
44313;BME280;38833;51.142;-0.974;2023-09-19T10:20:27;99066.53;;;23.79;41.99
44313;BME280;38833;51.142;-0.974;2023-09-19T10:23:04;99075.93;;;23.91;42.16
44313;BME280;38833;51.142;-0.974;2023-09-19T10:25:39;99066.02;;;23.58;42.14
44313;BME280;38833;51.142;-0.974;2023-09-19T10:28:14;99051.32;;;23.55;42.46
44313;BME280;38833;51.142;-0.974;2023-09-19T10:30:49;99065.83;;;23.17;42.49
44313;BME280;38833;51.142;-0.974;2023-09-19T10:33:24;99059.17;;;23.40;42.64
44313;BME280;38833;51.142;-0.974;2023-09-19T10:35:59;99063.87;;;23.95;41.97
44313;BME280;38833;51.142;-0.974;2023-09-19T10:38:33;99076.30;;;23.65;41.72
44313;BME280;38833;51.142;-0.974;2023-09-19T10:41:08;99073.72;;;23.85;41.72
44313;BME280;38833;51.142;-0.974;2023-09-19T10:43:46;99080.06;;;23.62;41.73
44313;BME280;38833;51.142;-0.974;2023-09-19T10:46:21;99089.99;;;23.65;41.67
44313;BME280;38833;51.142;-0.974;2023-09-19T10:48:59;99089.10;;;23.64;41.65
44313;BME280;38833;51.142;-0.974;2023-09-19T10:51:40;99089.20;;;23.56;41.73
44313;BME280;38833;51.142;-0.974;2023-09-19T10:54:17;99099.21;;;23.82;41.65
44313;BME280;38833;51.142;-0.974;2023-09-19T10:56:52;99092.23;;;23.85;41.64
44313;BME280;38833;51.142;-0.974;2023-09-19T10:59:26;99100.13;;;23.75;41.82
44313;BME280;38833;51.142;-0.974;2023-09-19T11:02:00;99108.32;;;23.43;41.95
44313;BME280;38833;51.142;-0.974;2023-09-19T11:04:48;99102.08;;;23.68;41.91
44313;BME280;38833;51.142;-0.974;2023-09-19T11:07:21;99103.89;;;23.79;42.11
44313;BME280;38833;51.142;-0.974;2023-09-19T11:09:56;99099.39;;;23.75;41.83
44313;BME280;38833;51.142;-0.974;2023-09-19T11:12:51;99094.44;;;23.34;42.10
44313;BME280;38833;51.142;-0.974;2023-09-19T11:17:32;99095.77;;;22.93;43.04
44313;BME280;38833;51.142;-0.974;2023-09-19T11:20:23;99090.77;;;23.16;43.15
44313;BME280;38833;51.142;-0.974;2023-09-19T11:23:29;99088.59;;;23.33;42.75
44313;BME280;38833;51.142;-0.974;2023-09-19T11:26:02;99088.70;;;22.96;42.66
44313;BME280;38833;51.142;-0.974;2023-09-19T11:28:36;99094.69;;;23.64;42.31
44313;BME280;38833;51.142;-0.974;2023-09-19T11:31:43;99088.81;;;23.76;42.03
44313;BME280;38833;51.142;-0.974;2023-09-19T11:34:49;99101.23;;;23.58;42.35
44313;BME280;38833;51.142;-0.974;2023-09-19T11:38:01;99085.61;;;23.80;42.41
44313;BME280;38833;51.142;-0.974;2023-09-19T11:40:34;99080.70;;;22.96;42.93
44313;BME280;38833;51.142;-0.974;2023-09-19T11:43:40;99090.52;;;23.12;42.81
44313;BME280;38833;51.142;-0.974;2023-09-19T11:46:13;99085.98;;;23.48;42.56
44313;BME280;38833;51.142;-0.974;2023-09-19T11:48:48;99076.39;;;23.47;42.59
44313;BME280;38833;51.142;-0.974;2023-09-19T11:51:23;99076.74;;;23.56;42.46
44313;BME280;38833;51.142;-0.974;2023-09-19T11:53:57;99088.07;;;23.29;42.47
44313;BME280;38833;51.142;-0.974;2023-09-19T11:56:31;99080.99;;;23.48;42.56
44313;BME280;38833;51.142;-0.974;2023-09-19T11:59:05;99084.29;;;23.20;42.66
44313;BME280;38833;51.142;-0.974;2023-09-19T12:01:49;99083.56;;;23.39;42.74
44313;BME280;38833;51.142;-0.974;2023-09-19T12:04:34;99079.21;;;23.36;42.78
44313;BME280;38833;51.142;-0.974;2023-09-19T12:07:09;99084.29;;;23.31;42.82
44313;BME280;38833;51.142;-0.974;2023-09-19T12:09:44;99073.03;;;23.38;42.73
44313;BME280;38833;51.142;-0.974;2023-09-19T12:12:21;99069.66;;;23.02;43.01
44313;BME280;38833;51.142;-0.974;2023-09-19T12:14:56;99061.44;;;23.35;42.81
44313;BME280;38833;51.142;-0.974;2023-09-19T12:17:35;99057.51;;;23.43;42.64
44313;BME280;38833;51.142;-0.974;2023-09-19T12:20:09;99063.86;;;23.48;42.59
44313;BME280;38833;51.142;-0.974;2023-09-19T12:22:44;99062.70;;;23.33;42.86
44313;BME280;38833;51.142;-0.974;2023-09-19T12:25:18;99055.45;;;23.32;42.85
44313;BME280;38833;51.142;-0.974;2023-09-19T12:27:51;99062.80;;;23.45;42.68
44313;BME280;38833;51.142;-0.974;2023-09-19T12:30:28;99067.23;;;23.34;42.91
44313;BME280;38833;51.142;-0.974;2023-09-19T12:33:02;99061.79;;;23.61;42.46
44313;BME280;38833;51.142;-0.974;2023-09-19T12:35:36;99064.82;;;23.60;42.45
44313;BME280;38833;51.142;-0.974;2023-09-19T12:38:09;99064.39;;;23.08;42.60
44313;BME280;38833;51.142;-0.974;2023-09-19T12:40:42;99059.93;;;23.10;42.90
44313;BME280;38833;51.142;-0.974;2023-09-19T12:43:16;99056.70;;;23.40;42.77
44313;BME280;38833;51.142;-0.974;2023-09-19T12:45:50;99051.49;;;23.58;42.61
44313;BME280;38833;51.142;-0.974;2023-09-19T12:48:25;99045.81;;;23.18;42.80
44313;BME280;38833;51.142;-0.974;2023-09-19T12:51:01;99054.06;;;23.54;42.65
44313;BME280;38833;51.142;-0.974;2023-09-19T12:53:36;99048.55;;;23.42;42.88
44313;BME280;38833;51.142;-0.974;2023-09-19T12:56:11;99048.25;;;22.99;43.71
44313;BME280;38833;51.142;-0.974;2023-09-19T12:58:53;99056.80;;;23.33;43.10
44313;BME280;38833;51.142;-0.974;2023-09-19T13:01:27;99048.38;;;22.92;43.45
44313;BME280;38833;51.142;-0.974;2023-09-19T13:04:17;99053.69;;;23.38;43.00
44313;BME280;38833;51.142;-0.974;2023-09-19T13:06:51;99056.84;;;23.35;43.06
44313;BME280;38833;51.142;-0.974;2023-09-19T13:09:25;99040.61;;;23.04;43.50
44313;BME280;38833;51.142;-0.974;2023-09-19T13:11:58;99051.99;;;23.08;43.46
44313;BME280;38833;51.142;-0.974;2023-09-19T13:14:31;99047.08;;;23.10;43.20
44313;BME280;38833;51.142;-0.974;2023-09-19T13:17:06;99055.36;;;23.50;42.84
44313;BME280;38833;51.142;-0.974;2023-09-19T13:19:41;99048.49;;;23.56;42.75
44313;BME280;38833;51.142;-0.974;2023-09-19T13:22:47;99041.25;;;23.59;42.72
44313;BME280;38833;51.142;-0.974;2023-09-19T13:25:21;99048.35;;;23.61;42.75
44313;BME280;38833;51.142;-0.974;2023-09-19T13:27:57;99046.24;;;23.22;43.02
44313;BME280;38833;51.142;-0.974;2023-09-19T13:30:31;99038.42;;;23.55;42.86
44313;BME280;38833;51.142;-0.974;2023-09-19T13:33:06;99026.73;;;23.27;43.48
44313;BME280;38833;51.142;-0.974;2023-09-19T13:35:40;99033.57;;;23.53;43.04